Time;durP1;ratioP1;P1;durP2;ratioP2;P2;SDS_P1;SDS_P2;PMS_P1;PMS_P2;Temp;Humidity;BMP_temperature;BMP_pressure;BME280_temperature;BME280_humidity;BME280_pressure;Samples;Min_cycle;Max_cycle;Signal;HPM_P1;HPM_P2
2023/03/22 00:00:53;;;;;;;3.25;1.75;;;7.30;94.00;;;;;;5047956;28;20028;-81
2023/03/22 00:03:19;;;;;;;;;;;7.50;94.10;;;;;;5047909;28;20029;-81
2023/03/22 00:05:45;;;;;;;2.65;2.15;;;;;;;;;;5053607;28;20548;-81
2023/03/22 00:08:12;;;;;;;5.38;2.08;;;;;;;;;;5050070;28;20108;-81
2023/03/22 00:10:39;;;;;;;6.75;2.25;;;7.00;94.90;;;;;;5048396;28;20017;-81
2023/03/22 00:13:06;;;;;;;9.20;2.50;;;6.90;94.90;;;;;;5046820;28;20029;-81
2023/03/22 00:15:33;;;;;;;2.97;2.15;;;;;;;;;;5047968;28;20028;-81
2023/03/22 00:17:59;;;;;;;9.63;2.75;;;;;;;;;;5051992;28;20765;-80
2023/03/22 00:20:29;;;;;;;6.22;2.88;;;7.00;95.00;;;;;;5052092;28;20547;-81
2023/03/22 00:22:55;;;;;;;4.05;2.20;;;;;;;;;;5051257;28;20394;-80
2023/03/22 00:25:21;;;;;;;7.68;2.67;;;;;;;;;;5052086;28;20089;-80
2023/03/22 00:27:47;;;;;;;6.03;2.83;;;;;;;;;;5039091;28;20029;-81
2023/03/22 00:30:13;;;;;;;7.20;3.42;;;;;;;;;;5051947;28;20526;-81
2023/03/22 00:32:41;;;;;;;3.00;2.35;;;;;;;;;;5050337;28;20104;-81
2023/03/22 00:35:08;;;;;;;4.18;2.78;;;7.10;99.90;;;;;;5051636;28;20037;-81
2023/03/22 00:37:37;;;;;;;4.50;2.55;;;;;;;;;;5051725;28;20013;-80
2023/03/22 00:40:08;;;;;;;4.45;2.80;;;7.10;97.40;;;;;;5051814;28;20060;-81
2023/03/22 00:42:35;;;;;;;4.90;3.08;;;6.90;95.60;;;;;;5049857;28;20094;-81
2023/03/22 00:45:01;;;;;;;6.63;3.33;;;;;;;;;;5051457;28;20509;-80
2023/03/22 00:47:27;;;;;;;7.55;2.75;;;;;;;;;;5046584;28;20022;-81
2023/03/22 00:49:53;;;;;;;4.40;2.97;;;;;;;;;;5044338;28;20029;-81
2023/03/22 00:52:20;;;;;;;4.20;2.88;;;;;;;;;;5051066;28;20876;-81
2023/03/22 00:54:46;;;;;;;6.13;3.30;;;;;;;;;;5051508;28;20555;-81
2023/03/22 00:57:13;;;;;;;6.68;3.08;;;6.50;99.90;;;;;;5051224;28;20051;-81
2023/03/22 00:59:39;;;;;;;4.20;2.78;;;5.70;98.00;;;;;;5050881;28;20487;-81
2023/03/22 01:02:05;;;;;;;15.18;2.65;;;;;;;;;;5050282;28;20510;-81
2023/03/22 01:04:34;;;;;;;8.55;2.35;;;6.20;98.80;;;;;;5050761;28;20029;-81
2023/03/22 01:07:02;;;;;;;6.25;2.60;;;;;;;;;;5062032;28;20074;-81
2023/03/22 01:09:30;;;;;;;6.00;3.50;;;6.10;99.90;;;;;;5050973;28;20021;-81
2023/03/22 01:11:56;;;;;;;;;;;6.10;99.90;;;;;;5050993;28;20120;-82
2023/03/22 01:14:23;;;;;;;8.43;2.90;;;5.80;99.90;;;;;;5051090;28;19904;-81
2023/03/22 01:16:49;;;;;;;5.28;2.88;;;;;;;;;;5050556;28;20028;-81
2023/03/22 01:19:15;;;;;;;9.48;2.47;;;;;;;;;;5050511;28;20048;-81
2023/03/22 01:21:41;;;;;;;8.45;2.80;;;;;;;;;;5050613;28;20036;-81
2023/03/22 01:24:07;;;;;;;8.98;2.60;;;6.10;98.30;;;;;;5050861;28;20074;-81
2023/03/22 01:26:34;;;;;;;9.00;3.85;;;;;;;;;;5050690;28;20625;-81
2023/03/22 01:29:00;;;;;;;7.95;2.85;;;;;;;;;;5050071;28;20037;-82
2023/03/22 01:31:26;;;;;;;3.72;2.30;;;;;;;;;;5037416;28;20076;-81
2023/03/22 01:33:52;;;;;;;4.57;1.80;;;;;;;;;;5050066;28;20028;-81
2023/03/22 01:36:18;;;;;;;6.20;2.67;;;;;;;;;;5050356;28;20055;-81
2023/03/22 01:38:44;;;;;;;4.78;2.55;;;;;;;;;;5050111;28;20099;-81
2023/03/22 01:41:10;;;;;;;2.83;2.55;;;;;;;;;;5050309;28;20099;-81
2023/03/22 01:43:36;;;;;;;5.70;2.60;;;;;;;;;;5048788;28;20059;-80
2023/03/22 01:46:02;;;;;;;8.45;2.33;;;6.20;99.90;;;;;;5050107;28;20057;-80
2023/03/22 01:48:34;;;;;;;2.72;2.10;;;6.30;99.90;;;;;;5050346;28;20099;-81
2023/03/22 01:51:03;;;;;;;9.15;2.67;;;;;;;;;;5038201;28;20053;-81
2023/03/22 01:53:33;;;;;;;4.93;2.10;;;6.00;97.90;;;;;;5050202;28;20044;-82
2023/03/22 01:56:00;;;;;;;3.55;2.28;;;5.90;99.90;;;;;;5049323;28;20507;-81
2023/03/22 01:58:26;;;;;;;3.03;2.05;;;;;;;;;;5050657;28;20023;-81
2023/03/22 02:00:52;;;;;;;3.65;2.85;;;;;;;;;;5058704;28;20032;-80
2023/03/22 02:03:26;;;;;;;2.15;1.58;;;5.90;97.80;;;;;;5049984;28;20048;-80
2023/03/22 02:05:53;;;;;;;6.72;2.30;;;5.70;99.90;;;;;;5057748;28;20033;-81
2023/03/22 02:08:19;;;;;;;5.68;2.13;;;;;;;;;;5053082;28;20017;-81
2023/03/22 02:10:45;;;;;;;3.63;1.80;;;;;;;;;;5049927;28;20048;-81
2023/03/22 02:13:17;;;;;;;11.15;4.93;;;5.80;99.60;;;;;;5049247;28;20060;-81
2023/03/22 02:15:52;;;;;;;1.92;1.77;;;5.70;99.90;;;;;;5047647;28;20120;-81
2023/03/22 02:18:29;;;;;;;1.80;1.58;;;5.10;99.90;;;;;;5049468;28;20025;-81
2023/03/22 02:21:28;;;;;;;3.67;2.53;;;5.60;99.90;;;;;;5045081;28;20092;-80
2023/03/22 02:24:00;;;;;;;2.70;1.67;;;5.60;99.60;;;;;;5050149;28;20037;-81
2023/03/22 02:26:58;;;;;;;2.63;1.52;;;5.40;99.90;;;;;;5049534;28;20031;-81
2023/03/22 02:29:56;;;;;;;2.00;1.65;;;5.70;99.80;;;;;;5049450;28;20021;-80
2023/03/22 02:32:22;;;;;;;2.28;2.08;;;;;;;;;;5049001;28;20025;-81
2023/03/22 02:35:01;;;;;;;3.70;2.20;;;5.90;99.70;;;;;;5049033;28;20104;-80
2023/03/22 02:37:41;;;;;;;2.53;1.83;;;5.80;98.20;;;;;;5049499;28;20025;-81
2023/03/22 02:40:31;;;;;;;2.80;1.67;;;5.90;99.90;;;;;;5048373;28;20032;-80
2023/03/22 02:43:02;;;;;;;2.58;2.22;;;5.80;99.90;;;;;;5038489;28;20080;-81
2023/03/22 02:45:39;;;;;;;3.80;2.47;;;5.40;99.90;;;;;;5049253;28;20104;-81
2023/03/22 02:48:13;;;;;;;3.80;2.33;;;5.30;99.60;;;;;;5049585;28;20131;-81
2023/03/22 02:50:51;;;;;;;2.88;2.33;;;5.30;99.70;;;;;;5048439;28;20087;-81
2023/03/22 02:53:52;;;;;;;2.35;2.10;;;5.00;99.90;;;;;;5049339;28;20021;-80
2023/03/22 02:56:47;;;;;;;2.80;2.00;;;5.10;99.90;;;;;;5026217;28;20088;-81
2023/03/22 02:59:14;;;;;;;5.93;1.77;;;4.90;99.90;;;;;;4957740;28;20130;-80
2023/03/22 03:01:53;;;;;;;3.85;2.20;;;4.90;99.90;;;;;;4967397;28;20039;-81
2023/03/22 03:04:25;;;;;;;3.17;1.70;;;4.70;99.90;;;;;;4967047;28;20081;-81
2023/03/22 03:06:54;;;;;;;3.97;2.70;;;4.90;99.90;;;;;;4979196;28;20118;-81
2023/03/22 03:09:20;;;;;;;3.15;2.75;;;4.90;99.90;;;;;;4967277;28;20047;-81
2023/03/22 03:11:49;;;;;;;6.47;2.42;;;4.80;99.90;;;;;;4966965;28;20038;-80
2023/03/22 03:14:21;;;;;;;2.75;2.05;;;;;;;;;;4967510;28;20069;-81
2023/03/22 03:17:05;;;;;;;3.85;1.77;;;4.60;99.90;;;;;;4967273;28;20078;-81
2023/03/22 03:19:39;;;;;;;3.80;2.72;;;4.90;99.90;;;;;;4967166;28;20031;-79
2023/03/22 03:22:23;;;;;;;7.13;2.33;;;;;;;;;;4967343;28;20149;-81
2023/03/22 03:25:21;;;;;;;4.18;1.67;;;4.80;99.90;;;;;;4966853;28;20038;-80
2023/03/22 03:27:56;;;;;;;9.25;2.20;;;4.90;99.90;;;;;;4966498;28;20030;-80
2023/03/22 03:30:37;;;;;;;6.88;2.17;;;4.80;99.90;;;;;;4967448;28;20035;-81
2023/03/22 03:33:10;;;;;;;8.07;2.67;;;5.00;99.90;;;;;;4975818;28;20064;-81
2023/03/22 03:35:59;;;;;;;2.85;2.42;;;5.00;99.90;;;;;;5017777;28;20069;-81
2023/03/22 03:38:29;;;;;;;4.45;3.05;;;4.90;99.90;;;;;;5047167;28;20029;-80
2023/03/22 03:41:03;;;;;;;3.45;2.00;;;5.00;99.90;;;;;;5048022;28;20403;-81
2023/03/22 03:43:31;;;;;;;3.08;2.15;;;5.00;99.60;;;;;;5048300;28;20033;-82
2023/03/22 03:45:57;;;;;;;3.85;2.40;;;;;;;;;;5048227;28;20029;-80
2023/03/22 03:48:27;;;;;;;3.70;2.13;;;4.70;99.90;;;;;;5047915;28;20369;-80
2023/03/22 03:50:53;;;;;;;2.63;2.35;;;;;;;;;;5048799;28;20032;-80
2023/03/22 03:53:19;;;;;;;5.65;3.05;;;;;;;;;;5052666;28;20036;-81
2023/03/22 03:55:45;;;;;;;11.65;2.30;;;;;;;;;;5052786;28;20036;-81
2023/03/22 03:58:11;;;;;;;6.60;2.97;;;;;;;;;;5052561;28;20514;-81
2023/03/22 04:00:38;;;;;;;3.03;2.67;;;;;;;;;;5052165;28;20091;-81
2023/03/22 04:03:05;;;;;;;5.57;2.53;;;4.40;99.90;;;;;;5052017;28;20463;-81
2023/03/22 04:05:31;;;;;;;1.67;1.40;;;;;;;;;;5051346;28;20039;-81
2023/03/22 04:07:57;;;;;;;3.65;2.33;;;;;;;;;;5052519;28;20036;-80
2023/03/22 04:10:23;;;;;;;2.47;2.25;;;4.70;99.90;;;;;;5051770;28;20091;-80
2023/03/22 04:12:49;;;;;;;1.98;1.70;;;;;;;;;;5052087;28;20546;-81
2023/03/22 04:15:15;;;;;;;4.75;2.25;;;;;;;;;;5052030;28;20063;-81
2023/03/22 04:17:41;;;;;;;8.93;2.25;;;4.40;99.90;;;;;;5051981;28;20048;-80
2023/03/22 04:20:09;;;;;;;5.75;2.88;;;4.50;99.60;;;;;;5051806;28;20510;-80
2023/03/22 04:22:39;;;;;;;2.97;2.50;;;4.30;99.70;;;;;;5051557;28;20040;-80
2023/03/22 04:25:11;;;;;;;3.40;2.58;;;4.10;99.90;;;;;;5051393;28;20043;-80
2023/03/22 04:27:41;;;;;;;6.10;2.75;;;4.20;99.90;;;;;;5051908;28;20051;-81
2023/03/22 04:30:11;;;;;;;3.90;2.55;;;4.20;99.90;;;;;;5051682;28;20025;-80
2023/03/22 04:32:37;;;;;;;3.88;2.45;;;4.00;99.90;;;;;;5051851;28;20100;-80
2023/03/22 04:35:04;;;;;;;5.30;2.60;;;;;;;;;;5051571;28;20256;-81
2023/03/22 04:37:33;;;;;;;4.25;2.78;;;4.70;99.90;;;;;;5051499;28;20108;-81
2023/03/22 04:39:59;;;;;;;3.10;2.17;;;4.10;99.90;;;;;;5051366;28;20056;-80
2023/03/22 04:42:25;;;;;;;4.65;2.38;;;;;;;;;;5051218;28;20044;-80
2023/03/22 04:44:51;;;;;;;3.50;2.25;;;4.50;99.90;;;;;;5051451;28;20420;-80
2023/03/22 04:47:17;;;;;;;2.97;1.80;;;4.30;99.90;;;;;;5051795;28;20025;-81
2023/03/22 04:49:43;;;;;;;5.53;2.53;;;4.50;99.90;;;;;;5051651;28;20037;-80
2023/03/22 04:52:09;;;;;;;2.63;2.05;;;4.30;99.90;;;;;;5051079;28;20049;-81
2023/03/22 04:54:36;;;;;;;6.75;2.97;;;;;;;;;;5049960;28;20029;-81
2023/03/22 04:57:02;;;;;;;2.63;2.03;;;4.20;99.90;;;;;;5051396;28;20495;-80
2023/03/22 04:59:28;;;;;;;3.17;2.10;;;;;;;;;;5050821;28;20239;-80
2023/03/22 05:01:54;;;;;;;4.25;2.78;;;;;;;;;;5049141;28;20119;-80
2023/03/22 05:04:20;;;;;;;8.00;2.20;;;3.60;99.90;;;;;;5049978;28;20032;-80
2023/03/22 05:06:46;;;;;;;3.90;2.17;;;4.00;99.90;;;;;;5050975;28;20029;-80
2023/03/22 05:09:12;;;;;;;4.45;2.15;;;3.80;99.90;;;;;;5051100;28;20036;-80
2023/03/22 05:11:39;;;;;;;6.28;2.88;;;;;;;;;;5051014;28;20039;-80
2023/03/22 05:14:05;;;;;;;3.40;2.53;;;;;;;;;;5051107;28;20040;-80
2023/03/22 05:16:31;;;;;;;5.07;2.65;;;;;;;;;;5049286;28;20298;-80
2023/03/22 05:19:01;;;;;;;3.45;2.42;;;3.80;99.90;;;;;;5050382;28;20017;-80
2023/03/22 05:21:28;;;;;;;4.38;2.95;;;4.00;99.90;;;;;;5050599;28;20044;-80
2023/03/22 05:23:55;;;;;;;;;;;3.90;99.90;;;;;;5049897;28;20388;-80
2023/03/22 05:26:23;;;;;;;4.20;2.70;;;;;;;;;;5050660;28;19962;-80
2023/03/22 05:28:52;;;;;;;6.03;2.75;;;4.00;99.90;;;;;;5050785;28;20037;-80
2023/03/22 05:31:20;;;;;;;7.80;3.13;;;4.20;99.90;;;;;;5050441;28;20032;-81
2023/03/22 05:33:47;;;;;;;11.32;3.13;;;4.20;99.90;;;;;;5050367;28;20099;-81
2023/03/22 05:36:13;;;;;;;8.68;3.45;;;4.50;99.90;;;;;;5049659;28;20036;-81
2023/03/22 05:38:40;;;;;;;3.08;2.35;;;4.20;99.90;;;;;;5050280;28;20206;-80
2023/03/22 05:41:05;;;;;;;5.33;3.17;;;4.10;99.90;;;;;;5050595;28;20036;-81
2023/03/22 05:43:31;;;;;;;4.10;2.70;;;;;;;;;;5050269;28;20259;-81
2023/03/22 05:45:58;;;;;;;8.90;3.80;;;;;;;;;;5050273;28;20034;-80
2023/03/22 05:48:24;;;;;;;5.95;3.58;;;;;;;;;;5050618;28;20158;-81
2023/03/22 05:50:50;;;;;;;6.05;2.92;;;;;;;;;;5050058;28;20117;-81
2023/03/22 05:53:15;;;;;;;3.38;2.85;;;4.50;99.90;;;;;;5050294;28;20573;-81
2023/03/22 05:55:41;;;;;;;5.32;2.58;;;;;;;;;;5048137;28;20079;-82
2023/03/22 05:58:07;;;;;;;9.88;3.35;;;;;;;;;;5050566;28;20162;-80
2023/03/22 06:00:34;;;;;;;7.97;3.88;;;;;;;;;;5049753;28;20032;-81
2023/03/22 06:03:02;;;;;;;3.83;3.08;;;;;;;;;;5048802;28;20112;-81
2023/03/22 06:05:35;;;;;;;5.95;2.78;;;4.90;99.60;;;;;;5052430;28;20471;-80
2023/03/22 06:08:01;;;;;;;4.82;3.25;;;5.10;99.60;;;;;;5049947;28;20100;-81
2023/03/22 06:10:27;;;;;;;6.88;3.90;;;5.20;99.90;;;;;;5049863;28;20304;-81
2023/03/22 06:12:53;;;;;;;3.67;2.90;;;5.30;99.90;;;;;;5049925;28;20025;-80
2023/03/22 06:15:19;;;;;;;6.93;3.33;;;5.50;99.90;;;;;;5048963;28;20151;-81
2023/03/22 06:17:45;;;;;;;6.53;3.30;;;;;;;;;;5046207;28;20822;-81
2023/03/22 06:20:13;;;;;;;4.35;2.95;;;5.20;98.70;;;;;;5048523;28;20111;-81
2023/03/22 06:22:39;;;;;;;4.13;3.08;;;;;;;;;;5048142;28;20029;-80
2023/03/22 06:25:06;;;;;;;5.20;2.70;;;5.70;97.60;;;;;;5048333;28;20224;-80
2023/03/22 06:27:32;;;;;;;7.22;3.38;;;;;;;;;;5042231;28;20056;-80
2023/03/22 06:29:58;;;;;;;5.88;4.22;;;7.20;99.90;;;;;;5039085;28;20083;-80
2023/03/22 06:32:25;;;;;;;4.75;4.25;;;;;;;;;;5047460;28;20025;-78
2023/03/22 06:34:54;;;;;;;6.05;5.30;;;13.00;74.70;;;;;;5047220;28;20098;-80
2023/03/22 06:37:20;;;;;;;5.82;5.20;;;;;;;;;;5047942;28;20055;-78
2023/03/22 06:39:47;;;;;;;7.85;4.97;;;;;;;;;;5047873;28;20503;-80
2023/03/22 06:42:12;;;;;;;4.38;4.00;;;19.60;66.90;;;;;;5048298;28;20029;-81
2023/03/22 06:44:41;;;;;;;6.03;5.03;;;20.50;63.90;;;;;;5047340;28;20480;-81
2023/03/22 06:47:07;;;;;;;7.30;3.97;;;19.90;63.50;;;;;;5046476;28;20029;-80
2023/03/22 06:49:33;;;;;;;7.95;4.32;;;;;;;;;;5047927;28;20017;-79
2023/03/22 06:52:00;;;;;;;10.10;6.10;;;;;;;;;;5045870;28;20087;-79
2023/03/22 06:54:26;;;;;;;10.00;8.07;;;;;;;;;;5048042;28;20112;-79
2023/03/22 06:56:52;;;;;;;21.88;10.90;;;;;;;;;;5047527;28;20440;-79
2023/03/22 06:59:18;;;;;;;17.75;8.93;;;;;;;;;;5048187;28;20029;-80
2023/03/22 07:01:44;;;;;;;10.88;6.57;;;;;;;;;;5047420;28;20467;-79
2023/03/22 07:04:10;;;;;;;6.15;5.00;;;;;;;;;;5047222;28;20032;-79
2023/03/22 07:06:36;;;;;;;5.75;4.78;;;;;;;;;;5047221;28;20395;-80
2023/03/22 07:09:02;;;;;;;6.38;3.50;;;;;;;;;;5047608;28;20039;-88
2023/03/22 07:11:27;;;;;;;4.65;3.47;;;24.60;50.30;;;;;;5047704;28;20036;-85
2023/03/22 07:13:54;;;;;;;5.85;3.05;;;27.70;39.60;;;;;;5047648;28;20021;-80
2023/03/22 07:16:20;;;;;;;9.40;4.30;;;;;;;;;;5048849;28;20036;-91
2023/03/22 07:18:47;;;;;;;5.65;4.60;;;;;;;;;;5047553;28;20021;-81
2023/03/22 07:21:13;;;;;;;8.65;4.22;;;35.70;42.20;;;;;;5047047;28;20131;-81
2023/03/22 07:23:39;;;;;;;7.80;3.75;;;;;;;;;;5039452;28;20029;-81
2023/03/22 07:26:05;;;;;;;4.80;3.70;;;;;;;;;;5044769;28;20162;-82
2023/03/22 07:28:31;;;;;;;4.30;2.83;;;33.30;41.30;;;;;;5046861;28;20712;-81
2023/03/22 07:31:05;;;;;;;5.33;4.40;;;34.50;41.20;;;;;;5046123;28;20100;-82
2023/03/22 07:33:31;;;;;;;10.30;3.67;;;37.20;38.90;;;;;;5047053;28;20120;-82
2023/03/22 07:35:57;;;;;;;10.00;4.77;;;;;;;;;;5046925;28;20120;-81
2023/03/22 07:38:23;;;;;;;5.30;3.90;;;34.60;38.60;;;;;;5046893;28;20396;-90
2023/03/22 07:40:53;;;;;;;6.47;4.37;;;32.20;30.30;;;;;;5047522;28;20029;-82
2023/03/22 07:43:19;;;;;;;5.50;4.03;;;;;;;;;;5047089;28;20380;-81
2023/03/22 07:45:45;;;;;;;4.00;3.28;;;;;;;;;;5044331;28;20040;-82
2023/03/22 07:48:11;;;;;;;5.73;3.30;;;;;;;;;;5036476;28;20026;-81
2023/03/22 07:50:37;;;;;;;8.73;3.57;;;;;;;;;;5033901;28;20272;-82
2023/03/22 07:53:03;;;;;;;6.97;3.95;;;;;;;;;;5038226;28;20017;-83
2023/03/22 07:55:29;;;;;;;6.77;3.23;;;;;;;;;;5037618;28;20037;-82
2023/03/22 07:57:56;;;;;;;5.27;3.70;;;;;;;;;;5043245;28;20029;-83
2023/03/22 08:00:21;;;;;;;8.48;3.65;;;28.50;34.50;;;;;;5041368;28;20541;-87
2023/03/22 08:02:47;;;;;;;5.55;4.00;;;30.10;31.50;;;;;;5048375;28;20033;-89
2023/03/22 08:05:14;;;;;;;10.50;4.50;;;;;;;;;;5047978;28;20044;-88
2023/03/22 08:07:41;;;;;;;13.52;8.80;;;;;;;;;;5041813;28;20036;-80
2023/03/22 08:10:07;;;;;;;7.25;4.72;;;;;;;;;;5043420;28;20108;-80
2023/03/22 08:12:33;;;;;;;5.40;3.05;;;;;;;;;;5027514;28;20029;-90
2023/03/22 08:14:59;;;;;;;4.65;3.45;;;36.50;34.60;;;;;;5028945;28;20570;-86
2023/03/22 08:17:25;;;;;;;6.38;3.40;;;;;;;;;;5038064;28;20148;-79
2023/03/22 08:19:53;;;;;;;4.93;3.85;;;37.90;27.50;;;;;;5045496;28;20033;-78
2023/03/22 08:22:24;;;;;;;5.13;4.30;;;40.70;27.60;;;;;;5033441;28;20042;-81
2023/03/22 08:24:51;;;;;;;6.28;5.32;;;43.50;32.70;;;;;;5040310;28;20029;-86
2023/03/22 08:27:17;;;;;;;;;;;43.70;25.60;;;;;;5046142;28;20036;-85
2023/03/22 08:29:44;;;;;;;4.90;4.03;;;48.80;24.80;;;;;;5046890;28;19966;-81
2023/03/22 08:32:10;;;;;;;8.75;4.28;;;;;;;;;;5038221;28;20096;-82
2023/03/22 08:34:36;;;;;;;;;;;47.60;23.60;;;;;;5035294;28;20812;-89
2023/03/22 08:37:04;;;;;;;3.53;2.70;;;44.10;32.60;;;;;;5031320;28;19912;-90
2023/03/22 08:39:30;;;;;;;5.80;3.55;;;;;;;;;;5049836;28;20083;-82
2023/03/22 08:41:56;;;;;;;4.18;2.50;;;;;;;;;;5049640;28;20029;-83
2023/03/22 08:44:22;;;;;;;4.82;2.67;;;;;;;;;;5051311;28;20025;-86
2023/03/22 08:46:48;;;;;;;4.63;3.20;;;;;;;;;;5049353;28;20036;-88
2023/03/22 08:49:15;;;;;;;5.47;3.33;;;;;;;;;;5051972;28;20021;-88
2023/03/22 08:51:41;;;;;;;5.00;3.20;;;;;;;;;;5050277;28;20048;-80
2023/03/22 08:54:07;;;;;;;;;;;47.50;23.50;;;;;;5044027;28;20182;-80
2023/03/22 08:56:37;;;;;;;4.50;2.55;;;46.10;27.20;;;;;;5046071;28;19905;-81
2023/03/22 08:59:06;;;;;;;4.05;3.28;;;47.00;30.00;;;;;;5050290;28;20078;-88
2023/03/22 09:01:33;;;;;;;3.60;3.03;;;;;;;;;;5065633;28;20392;-85
2023/03/22 09:03:58;;;;;;;4.75;3.00;;;49.40;24.90;;;;;;5049468;28;20021;-84
2023/03/22 09:06:25;;;;;;;2.75;2.53;;;;;;;;;;5037689;28;20048;-84
2023/03/22 09:08:52;;;;;;;6.40;3.13;;;49.60;21.50;;;;;;5045145;28;20060;-82
2023/03/22 09:11:19;;;;;;;3.28;2.38;;;48.00;21.60;;;;;;5049748;28;20380;-82
2023/03/22 09:13:45;;;;;;;2.70;2.30;;;;;;;;;;5050424;28;20107;-82
2023/03/22 09:16:11;;;;;;;3.63;2.47;;;;;;;;;;5049629;28;20044;-83
2023/03/22 09:18:37;;;;;;;8.68;2.60;;;;;;;;;;5050272;28;20060;-83
2023/03/22 09:21:06;;;;;;;3.67;2.15;;;52.40;27.40;;;;;;5049755;28;20369;-83
2023/03/22 09:23:32;;;;;;;3.05;2.60;;;;;;;;;;5049989;28;20439;-83
2023/03/22 09:26:03;;;;;;;2.97;2.67;;;54.50;27.00;;;;;;5048501;28;20537;-82
2023/03/22 09:28:29;;;;;;;3.90;2.20;;;54.30;25.60;;;;;;5043796;28;20021;-83
2023/03/22 09:30:58;;;;;;;2.80;2.60;;;55.60;24.70;;;;;;5049765;28;20025;-82
2023/03/22 09:33:24;;;;;;;3.63;2.53;;;;;;;;;;5049551;28;20155;-83
2023/03/22 09:35:53;;;;;;;2.97;2.67;;;54.50;20.60;;;;;;5049554;28;20042;-83
2023/03/22 09:38:19;;;;;;;2.67;2.47;;;55.10;26.40;;;;;;5048732;28;20059;-83
2023/03/22 09:41:01;;;;;;;2.95;2.28;;;55.10;21.20;;;;;;5049624;28;20564;-83
2023/03/22 09:43:36;;;;;;;2.65;2.15;;;55.10;26.20;;;;;;5049443;28;20021;-83
2023/03/22 09:46:05;;;;;;;2.65;2.20;;;53.80;26.90;;;;;;5048927;28;20039;-82
2023/03/22 09:48:34;;;;;;;3.92;2.20;;;54.90;20.60;;;;;;5048821;28;20029;-84
2023/03/22 09:51:03;;;;;;;3.15;2.20;;;55.50;26.80;;;;;;5037151;28;20052;-89
2023/03/22 09:53:30;;;;;;;3.33;2.30;;;55.60;20.20;;;;;;5043982;28;20043;-88
2023/03/22 09:56:22;;;;;;;3.25;2.83;;;56.00;26.50;;;;;;5042083;28;20102;-82
2023/03/22 09:59:09;;;;;;;2.78;2.20;;;56.00;26.40;;;;;;5045019;28;20098;-81
2023/03/22 10:01:58;;;;;;;3.17;2.40;;;55.90;26.50;;;;;;5049951;28;20106;-90
2023/03/22 10:04:46;;;;;;;2.45;1.90;;;55.90;26.60;;;;;;5047002;28;20098;-88
2023/03/22 10:07:33;;;;;;;3.33;1.90;;;55.20;26.30;;;;;;5044370;28;20099;-90
2023/03/22 10:10:17;;;;;;;2.42;2.22;;;;;;;;;;5048477;28;20517;-88
2023/03/22 10:12:54;;;;;;;2.63;1.70;;;55.10;20.10;;;;;;5035457;28;20484;-82
2023/03/22 10:15:20;;;;;;;1.88;1.77;;;;;;;;;;5046621;28;20033;-88
2023/03/22 10:17:52;;;;;;;3.10;1.80;;;54.40;20.20;;;;;;5049132;28;20075;-82
2023/03/22 10:20:29;;;;;;;1.85;1.70;;;54.20;26.20;;;;;;5048760;28;20099;-81
2023/03/22 10:22:57;;;;;;;7.53;1.60;;;54.10;20.00;;;;;;5048231;28;20017;-82
2023/03/22 10:25:31;;;;;;;3.65;1.42;;;51.70;19.40;;;;;;5048671;28;20067;-81
2023/03/22 10:27:57;;;;;;;1.48;1.00;;;53.10;25.80;;;;;;5041182;28;20075;-91
2023/03/22 10:30:26;;;;;;;1.88;1.27;;;52.20;19.60;;;;;;5050530;28;20052;-79
2023/03/22 10:33:02;;;;;;;1.92;0.95;;;51.40;19.60;;;;;;5047994;28;20112;-80
2023/03/22 10:35:29;;;;;;;0.90;0.88;;;52.00;22.60;;;;;;5048595;28;20091;-82
2023/03/22 10:37:58;;;;;;;0.65;0.50;;;51.00;19.30;;;;;;5049179;28;20404;-82
2023/03/22 10:40:27;;;;;;;0.55;0.55;;;50.50;19.60;;;;;;5048402;28;20498;-81
2023/03/22 10:43:29;;;;;;;1.50;1.40;;;50.80;19.40;;;;;;5047946;28;20095;-80
2023/03/22 10:45:56;;;;;;;0.55;0.55;;;51.60;25.70;;;;;;5043649;28;20920;-80
2023/03/22 10:48:22;;;;;;;1.15;1.08;;;;;;;;;;5047609;28;20056;-80
2023/03/22 10:50:48;;;;;;;1.23;1.13;;;52.40;21.10;;;;;;5048052;28;20071;-81
2023/03/22 10:53:26;;;;;;;0.60;0.57;;;51.90;18.60;;;;;;5039803;28;20029;-79
2023/03/22 10:55:52;;;;;;;2.25;0.85;;;;;;;;;;5034130;28;20056;-81
2023/03/22 10:58:20;;;;;;;1.08;0.70;;;52.60;18.50;;;;;;5035582;28;20026;-81
2023/03/22 11:00:51;;;;;;;0.57;0.57;;;52.80;18.50;;;;;;5049753;28;20124;-81
2023/03/22 11:03:35;;;;;;;0.50;0.50;;;52.80;18.60;;;;;;5037736;28;20025;-80
2023/03/22 11:06:10;;;;;;;1.30;0.40;;;53.10;18.40;;;;;;5042176;28;20563;-81
2023/03/22 11:08:42;;;;;;;0.50;0.50;;;53.40;19.30;;;;;;5034482;28;20387;-81
2023/03/22 11:11:26;;;;;;;0.73;0.32;;;53.80;18.40;;;;;;5046580;28;20491;-80
2023/03/22 11:14:01;;;;;;;0.50;0.40;;;52.20;18.00;;;;;;5042793;28;20025;-81
2023/03/22 11:16:29;;;;;;;0.50;0.50;;;50.90;18.50;;;;;;5055606;28;20044;-81
2023/03/22 11:18:57;;;;;;;0.30;0.30;;;50.30;18.30;;;;;;5046875;28;20545;-81
2023/03/22 11:21:28;;;;;;;0.60;0.60;;;50.40;25.70;;;;;;5046950;28;20017;-81
2023/03/22 11:24:02;;;;;;;0.85;0.40;;;49.10;18.20;;;;;;5046384;28;20495;-80
2023/03/22 11:26:32;;;;;;;0.45;0.45;;;48.50;18.50;;;;;;5052318;28;20397;-79
2023/03/22 11:29:06;;;;;;;0.63;0.60;;;48.10;18.60;;;;;;5027800;28;20029;-80
2023/03/22 11:31:54;;;;;;;0.65;0.55;;;46.80;18.60;;;;;;5042772;28;20115;-80
2023/03/22 11:34:21;;;;;;;0.60;0.50;;;44.20;18.70;;;;;;5037726;28;20025;-80
2023/03/22 11:36:55;;;;;;;0.40;0.38;;;42.10;18.80;;;;;;5043094;28;20048;-80
2023/03/22 11:39:21;;;;;;;0.55;0.55;;;;;;;;;;5045382;28;20070;-79
2023/03/22 11:41:47;;;;;;;1.02;0.60;;;39.70;28.10;;;;;;5044169;28;20482;-79
2023/03/22 11:44:16;;;;;;;2.80;0.50;;;38.50;19.40;;;;;;5036548;28;20547;-80
2023/03/22 11:46:56;;;;;;;2.17;0.40;;;35.30;18.90;;;;;;5044236;28;20041;-79
2023/03/22 11:49:25;;;;;;;0.40;0.30;;;35.60;20.10;;;;;;5044590;28;20100;-79
2023/03/22 11:51:53;;;;;;;1.10;0.70;;;34.20;20.70;;;;;;5046181;28;20110;-79
2023/03/22 11:54:30;;;;;;;0.32;0.32;;;32.30;23.90;;;;;;5045445;28;20033;-80
2023/03/22 11:57:01;;;;;;;0.52;0.52;;;31.30;31.30;;;;;;5036922;28;20028;-80
2023/03/22 11:59:37;;;;;;;0.68;0.60;;;31.10;22.20;;;;;;5042044;28;20189;-80
2023/03/22 12:02:17;;;;;;;1.13;0.70;;;31.20;31.60;;;;;;5042067;28;20040;-80
2023/03/22 12:04:45;;;;;;;0.45;0.45;;;31.00;24.30;;;;;;5040830;28;20031;-77
2023/03/22 12:07:19;;;;;;;0.57;0.57;;;30.80;31.70;;;;;;5045668;28;20038;-84
2023/03/22 12:10:07;;;;;;;6.25;1.00;;;30.50;23.70;;;;;;5031459;28;20076;-87
2023/03/22 12:12:39;;;;;;;0.60;0.60;;;34.50;22.60;;;;;;5048889;28;20111;-78
2023/03/22 12:15:05;;;;;;;0.50;0.50;;;;;;;;;;5049564;28;20529;-78
2023/03/22 12:18:05;;;;;;;0.80;0.77;;;37.70;20.60;;;;;;5043635;28;20043;-79
2023/03/22 12:20:56;;;;;;;0.65;0.65;;;37.00;20.50;;;;;;5043736;28;20043;-79
2023/03/22 12:23:25;;;;;;;0.43;0.43;;;36.40;25.60;;;;;;5037591;28;20037;-84
2023/03/22 12:26:01;;;;;;;1.65;0.43;;;36.60;20.80;;;;;;5041889;28;20525;-77
2023/03/22 12:28:37;;;;;;;0.47;0.47;;;36.10;20.90;;;;;;5045755;28;20025;-81
2023/03/22 12:31:06;;;;;;;2.08;0.52;;;35.80;21.30;;;;;;5043246;28;20033;-82
2023/03/22 12:33:56;;;;;;;0.40;0.38;;;34.90;21.50;;;;;;5046640;28;20033;-82
2023/03/22 12:36:55;;;;;;;0.40;0.40;;;33.60;22.00;;;;;;5050114;28;20048;-80
2023/03/22 12:39:21;;;;;;;0.40;0.30;;;;;;;;;;5011109;28;20037;-79
2023/03/22 12:41:51;;;;;;;1.77;0.80;;;31.00;23.00;;;;;;5027159;28;20029;-79
2023/03/22 12:44:34;;;;;;;2.25;0.40;;;30.30;23.40;;;;;;5023688;28;20170;-81
2023/03/22 12:47:02;;;;;;;0.50;0.50;;;29.50;23.70;;;;;;5023642;28;20052;-80
2023/03/22 12:49:34;;;;;;;0.52;0.50;;;28.80;24.30;;;;;;5023945;28;20033;-78
2023/03/22 12:52:16;;;;;;;0.40;0.40;;;28.30;24.70;;;;;;5025816;28;20531;-79
2023/03/22 12:54:43;;;;;;;0.65;0.60;;;28.10;25.10;;;;;;5023762;28;20029;-79
2023/03/22 12:57:10;;;;;;;1.23;0.60;;;28.00;25.10;;;;;;5027544;28;20036;-88
2023/03/22 12:59:36;;;;;;;;;;;28.00;25.00;;;;;;5014092;28;20031;-77
2023/03/22 13:02:02;;;;;;;1.07;0.80;;;;;;;;;;5025687;28;20009;-79
2023/03/22 13:04:33;;;;;;;0.73;0.73;;;28.10;25.30;;;;;;5025603;28;20143;-80
2023/03/22 13:07:19;;;;;;;0.55;0.55;;;28.10;30.50;;;;;;5040020;28;20491;-80
2023/03/22 13:09:47;;;;;;;0.52;0.52;;;28.80;26.10;;;;;;5027919;28;20064;-81
2023/03/22 13:12:15;;;;;;;1.45;0.98;;;28.30;25.80;;;;;;5027096;28;20045;-81
2023/03/22 13:15:01;;;;;;;0.75;0.75;;;28.20;25.70;;;;;;5036151;28;20139;-81
2023/03/22 13:17:27;;;;;;;0.40;0.40;;;;;;;;;;5050090;28;20060;-78
2023/03/22 13:20:07;;;;;;;1.73;1.20;;;27.90;26.00;;;;;;5049438;28;20090;-77
2023/03/22 13:22:40;;;;;;;0.50;0.50;;;27.70;39.10;;;;;;5045976;28;20069;-77
2023/03/22 13:25:09;;;;;;;3.10;0.65;;;27.60;32.90;;;;;;5048818;28;20308;-77
2023/03/22 13:27:44;;;;;;;0.85;0.63;;;27.50;26.50;;;;;;5049690;28;20112;-76
2023/03/22 13:30:25;;;;;;;4.15;0.82;;;27.40;26.80;;;;;;5049756;28;20025;-76
2023/03/22 13:33:18;;;;;;;1.58;1.30;;;27.20;26.90;;;;;;5049516;28;20540;-78
2023/03/22 13:36:22;;;;;;;0.50;0.50;;;27.00;42.50;;;;;;5040090;28;20025;-79
2023/03/22 13:39:01;;;;;;;0.60;0.60;;;26.70;27.40;;;;;;5043675;28;20702;-78
2023/03/22 13:41:30;;;;;;;0.60;0.60;;;26.60;28.90;;;;;;5049299;28;20029;-78
2023/03/22 13:43:58;;;;;;;0.52;0.52;;;26.40;27.70;;;;;;5049333;28;20036;-78
2023/03/22 13:46:24;;;;;;;2.30;0.57;;;;;;;;;;5049126;28;20037;-78